Ostend Airport 2018/10/15 16:50 EBOS 151650Z 01004KT CAVOK 17/14 Q1013 NOSIG

Lille Airport 2018/10/15 17:00 LFQQ 151700Z AUTO 36001KT CAVOK 20/11 Q1013 NOSIG

Brussels Airport 2018/10/15 16:50 EBBR 151650Z 17003KT CAVOK 19/11 Q1013 NOSIG